sensor_id;sensor_type;location;lat;lon;timestamp;P1;durP1;ratioP1;P2;durP2;ratioP2
2912;SDS011;1466;48.778;9.166;2024-01-30T00:01:35;75.10;;;20.80;;
2912;SDS011;1466;48.778;9.166;2024-01-30T00:04:01;92.93;;;24.83;;
2912;SDS011;1466;48.778;9.166;2024-01-30T00:06:27;87.18;;;24.75;;
2912;SDS011;1466;48.778;9.166;2024-01-30T00:08:53;48.50;;;16.00;;
2912;SDS011;1466;48.778;9.166;2024-01-30T00:11:18;42.03;;;16.33;;
2912;SDS011;1466;48.778;9.166;2024-01-30T00:13:44;60.53;;;15.40;;
2912;SDS011;1466;48.778;9.166;2024-01-30T00:16:19;23.13;;;11.10;;
2912;SDS011;1466;48.778;9.166;2024-01-30T00:18:46;31.40;;;12.48;;
2912;SDS011;1466;48.778;9.166;2024-01-30T00:21:12;24.83;;;11.63;;
2912;SDS011;1466;48.778;9.166;2024-01-30T00:23:38;25.03;;;10.60;;
2912;SDS011;1466;48.778;9.166;2024-01-30T00:26:03;27.40;;;10.50;;
2912;SDS011;1466;48.778;9.166;2024-01-30T00:28:30;35.13;;;11.48;;
2912;SDS011;1466;48.778;9.166;2024-01-30T00:30:56;21.27;;;10.48;;
2912;SDS011;1466;48.778;9.166;2024-01-30T00:33:21;35.03;;;11.07;;
2912;SDS011;1466;48.778;9.166;2024-01-30T00:35:47;15.87;;;9.60;;
2912;SDS011;1466;48.778;9.166;2024-01-30T00:38:12;21.90;;;9.10;;
2912;SDS011;1466;48.778;9.166;2024-01-30T00:40:38;19.90;;;9.67;;
2912;SDS011;1466;48.778;9.166;2024-01-30T00:43:03;17.53;;;9.10;;
2912;SDS011;1466;48.778;9.166;2024-01-30T00:45:29;19.00;;;10.03;;
2912;SDS011;1466;48.778;9.166;2024-01-30T00:47:55;20.10;;;9.87;;
2912;SDS011;1466;48.778;9.166;2024-01-30T00:50:20;39.87;;;16.70;;
2912;SDS011;1466;48.778;9.166;2024-01-30T00:52:46;282.53;;;85.87;;
2912;SDS011;1466;48.778;9.166;2024-01-30T00:55:11;142.67;;;47.67;;
2912;SDS011;1466;48.778;9.166;2024-01-30T00:57:37;44.85;;;19.83;;
2912;SDS011;1466;48.778;9.166;2024-01-30T01:00:03;136.13;;;41.93;;
2912;SDS011;1466;48.778;9.166;2024-01-30T01:02:31;96.07;;;32.05;;
2912;SDS011;1466;48.778;9.166;2024-01-30T01:04:57;80.93;;;31.63;;
2912;SDS011;1466;48.778;9.166;2024-01-30T01:07:22;94.13;;;32.30;;
2912;SDS011;1466;48.778;9.166;2024-01-30T01:09:48;75.03;;;27.20;;
2912;SDS011;1466;48.778;9.166;2024-01-30T01:12:13;49.43;;;22.53;;
2912;SDS011;1466;48.778;9.166;2024-01-30T01:14:39;28.90;;;14.53;;
2912;SDS011;1466;48.778;9.166;2024-01-30T01:17:04;56.20;;;21.43;;
2912;SDS011;1466;48.778;9.166;2024-01-30T01:19:30;58.97;;;23.40;;
2912;SDS011;1466;48.778;9.166;2024-01-30T01:21:56;28.73;;;13.13;;
2912;SDS011;1466;48.778;9.166;2024-01-30T01:24:21;21.60;;;10.80;;
2912;SDS011;1466;48.778;9.166;2024-01-30T01:26:47;37.03;;;15.97;;
2912;SDS011;1466;48.778;9.166;2024-01-30T01:29:13;36.20;;;13.40;;
2912;SDS011;1466;48.778;9.166;2024-01-30T01:31:38;38.87;;;17.43;;
2912;SDS011;1466;48.778;9.166;2024-01-30T01:34:09;68.93;;;24.33;;
2912;SDS011;1466;48.778;9.166;2024-01-30T01:36:35;42.25;;;18.10;;
2912;SDS011;1466;48.778;9.166;2024-01-30T01:39:01;40.30;;;18.57;;
2912;SDS011;1466;48.778;9.166;2024-01-30T01:41:29;41.47;;;15.77;;
2912;SDS011;1466;48.778;9.166;2024-01-30T01:43:56;36.88;;;16.17;;
2912;SDS011;1466;48.778;9.166;2024-01-30T01:46:22;38.57;;;15.27;;
2912;SDS011;1466;48.778;9.166;2024-01-30T01:48:47;29.40;;;12.63;;
2912;SDS011;1466;48.778;9.166;2024-01-30T01:51:13;31.50;;;13.50;;
2912;SDS011;1466;48.778;9.166;2024-01-30T01:53:39;57.90;;;25.58;;
2912;SDS011;1466;48.778;9.166;2024-01-30T01:56:05;74.97;;;25.20;;
2912;SDS011;1466;48.778;9.166;2024-01-30T01:58:31;44.22;;;17.27;;
2912;SDS011;1466;48.778;9.166;2024-01-30T02:00:57;20.13;;;10.97;;
2912;SDS011;1466;48.778;9.166;2024-01-30T02:03:24;27.40;;;11.07;;
2912;SDS011;1466;48.778;9.166;2024-01-30T02:05:53;17.03;;;9.40;;
2912;SDS011;1466;48.778;9.166;2024-01-30T02:08:20;19.80;;;10.10;;
2912;SDS011;1466;48.778;9.166;2024-01-30T02:10:45;43.57;;;21.67;;
2912;SDS011;1466;48.778;9.166;2024-01-30T02:13:11;41.67;;;18.47;;
2912;SDS011;1466;48.778;9.166;2024-01-30T02:15:36;42.30;;;18.63;;
2912;SDS011;1466;48.778;9.166;2024-01-30T02:18:02;49.90;;;21.07;;
2912;SDS011;1466;48.778;9.166;2024-01-30T02:20:28;58.07;;;25.70;;
2912;SDS011;1466;48.778;9.166;2024-01-30T02:22:56;24.25;;;10.82;;
2912;SDS011;1466;48.778;9.166;2024-01-30T02:25:38;20.75;;;10.18;;
2912;SDS011;1466;48.778;9.166;2024-01-30T02:28:10;23.10;;;9.70;;
2912;SDS011;1466;48.778;9.166;2024-01-30T02:30:39;17.13;;;9.45;;
2912;SDS011;1466;48.778;9.166;2024-01-30T02:33:04;24.77;;;10.63;;
2912;SDS011;1466;48.778;9.166;2024-01-30T02:35:30;39.63;;;11.33;;
2912;SDS011;1466;48.778;9.166;2024-01-30T02:37:57;24.50;;;10.98;;
2912;SDS011;1466;48.778;9.166;2024-01-30T02:40:22;25.80;;;11.53;;
2912;SDS011;1466;48.778;9.166;2024-01-30T02:42:48;27.30;;;12.27;;
2912;SDS011;1466;48.778;9.166;2024-01-30T02:45:13;33.30;;;12.53;;
2912;SDS011;1466;48.778;9.166;2024-01-30T02:47:39;32.80;;;11.40;;
2912;SDS011;1466;48.778;9.166;2024-01-30T02:50:05;22.20;;;9.60;;
2912;SDS011;1466;48.778;9.166;2024-01-30T02:52:31;19.20;;;9.40;;
2912;SDS011;1466;48.778;9.166;2024-01-30T02:54:57;20.03;;;9.97;;
2912;SDS011;1466;48.778;9.166;2024-01-30T02:57:23;27.77;;;10.20;;
2912;SDS011;1466;48.778;9.166;2024-01-30T02:59:48;24.77;;;10.10;;
2912;SDS011;1466;48.778;9.166;2024-01-30T03:02:14;30.07;;;10.07;;
2912;SDS011;1466;48.778;9.166;2024-01-30T03:04:43;18.37;;;9.23;;
2912;SDS011;1466;48.778;9.166;2024-01-30T03:07:09;20.00;;;9.15;;
2912;SDS011;1466;48.778;9.166;2024-01-30T03:09:36;23.33;;;10.13;;
2912;SDS011;1466;48.778;9.166;2024-01-30T03:12:02;19.50;;;8.77;;
2912;SDS011;1466;48.778;9.166;2024-01-30T03:14:30;34.00;;;11.00;;
2912;SDS011;1466;48.778;9.166;2024-01-30T03:16:56;17.90;;;9.57;;
2912;SDS011;1466;48.778;9.166;2024-01-30T03:19:21;20.83;;;9.57;;
2912;SDS011;1466;48.778;9.166;2024-01-30T03:21:47;24.80;;;9.57;;
2912;SDS011;1466;48.778;9.166;2024-01-30T03:24:13;23.37;;;9.93;;
2912;SDS011;1466;48.778;9.166;2024-01-30T03:26:38;16.37;;;9.23;;
2912;SDS011;1466;48.778;9.166;2024-01-30T03:29:04;23.90;;;10.50;;
2912;SDS011;1466;48.778;9.166;2024-01-30T03:31:29;19.03;;;9.43;;
2912;SDS011;1466;48.778;9.166;2024-01-30T03:33:55;21.63;;;9.57;;
2912;SDS011;1466;48.778;9.166;2024-01-30T03:36:20;23.53;;;9.73;;
2912;SDS011;1466;48.778;9.166;2024-01-30T03:38:46;22.47;;;9.47;;
2912;SDS011;1466;48.778;9.166;2024-01-30T03:41:12;20.23;;;10.30;;
2912;SDS011;1466;48.778;9.166;2024-01-30T03:43:37;17.17;;;9.03;;
2912;SDS011;1466;48.778;9.166;2024-01-30T03:46:03;23.47;;;10.03;;
2912;SDS011;1466;48.778;9.166;2024-01-30T03:48:29;21.33;;;9.80;;
2912;SDS011;1466;48.778;9.166;2024-01-30T03:50:55;19.17;;;9.25;;
2912;SDS011;1466;48.778;9.166;2024-01-30T03:53:20;25.33;;;10.00;;
2912;SDS011;1466;48.778;9.166;2024-01-30T03:55:46;17.52;;;9.27;;
2912;SDS011;1466;48.778;9.166;2024-01-30T03:58:12;22.87;;;10.00;;
2912;SDS011;1466;48.778;9.166;2024-01-30T04:00:37;21.30;;;9.33;;
2912;SDS011;1466;48.778;9.166;2024-01-30T04:03:03;19.30;;;10.37;;
2912;SDS011;1466;48.778;9.166;2024-01-30T04:05:29;19.87;;;8.87;;
2912;SDS011;1466;48.778;9.166;2024-01-30T04:07:54;21.03;;;9.40;;
2912;SDS011;1466;48.778;9.166;2024-01-30T04:10:20;23.90;;;10.13;;
2912;SDS011;1466;48.778;9.166;2024-01-30T04:12:46;21.03;;;9.03;;
2912;SDS011;1466;48.778;9.166;2024-01-30T04:15:11;23.03;;;10.07;;
2912;SDS011;1466;48.778;9.166;2024-01-30T04:17:38;21.27;;;9.48;;
2912;SDS011;1466;48.778;9.166;2024-01-30T04:20:04;28.58;;;10.63;;
2912;SDS011;1466;48.778;9.166;2024-01-30T04:22:30;14.30;;;8.43;;
2912;SDS011;1466;48.778;9.166;2024-01-30T04:24:56;13.23;;;8.57;;
2912;SDS011;1466;48.778;9.166;2024-01-30T04:27:22;22.63;;;10.10;;
2912;SDS011;1466;48.778;9.166;2024-01-30T04:29:47;17.10;;;9.23;;
2912;SDS011;1466;48.778;9.166;2024-01-30T04:32:13;21.00;;;9.10;;
2912;SDS011;1466;48.778;9.166;2024-01-30T04:34:38;23.60;;;9.67;;
2912;SDS011;1466;48.778;9.166;2024-01-30T04:37:04;16.70;;;9.23;;
2912;SDS011;1466;48.778;9.166;2024-01-30T04:39:29;21.07;;;8.80;;
2912;SDS011;1466;48.778;9.166;2024-01-30T04:41:55;24.87;;;9.93;;
2912;SDS011;1466;48.778;9.166;2024-01-30T04:44:20;16.23;;;8.37;;
2912;SDS011;1466;48.778;9.166;2024-01-30T04:46:46;21.50;;;9.70;;
2912;SDS011;1466;48.778;9.166;2024-01-30T04:49:12;24.77;;;9.67;;
2912;SDS011;1466;48.778;9.166;2024-01-30T04:51:37;22.33;;;10.07;;
2912;SDS011;1466;48.778;9.166;2024-01-30T04:54:03;16.37;;;9.10;;
2912;SDS011;1466;48.778;9.166;2024-01-30T04:56:29;21.20;;;9.00;;
2912;SDS011;1466;48.778;9.166;2024-01-30T04:58:54;24.10;;;10.67;;
2912;SDS011;1466;48.778;9.166;2024-01-30T05:01:20;22.70;;;10.07;;
2912;SDS011;1466;48.778;9.166;2024-01-30T05:03:45;30.73;;;11.50;;
2912;SDS011;1466;48.778;9.166;2024-01-30T05:06:11;22.93;;;10.27;;
2912;SDS011;1466;48.778;9.166;2024-01-30T05:08:37;21.80;;;10.20;;
2912;SDS011;1466;48.778;9.166;2024-01-30T05:11:03;24.50;;;10.30;;
2912;SDS011;1466;48.778;9.166;2024-01-30T05:13:30;19.55;;;9.85;;
2912;SDS011;1466;48.778;9.166;2024-01-30T05:15:56;23.50;;;9.40;;
2912;SDS011;1466;48.778;9.166;2024-01-30T05:18:22;21.33;;;9.70;;
2912;SDS011;1466;48.778;9.166;2024-01-30T05:20:49;38.87;;;12.40;;
2912;SDS011;1466;48.778;9.166;2024-01-30T05:23:15;17.13;;;9.45;;
2912;SDS011;1466;48.778;9.166;2024-01-30T05:25:41;19.57;;;10.57;;
2912;SDS011;1466;48.778;9.166;2024-01-30T05:28:06;16.23;;;9.03;;
2912;SDS011;1466;48.778;9.166;2024-01-30T05:30:32;13.80;;;8.03;;
2912;SDS011;1466;48.778;9.166;2024-01-30T05:32:57;17.73;;;9.50;;
2912;SDS011;1466;48.778;9.166;2024-01-30T05:35:23;35.97;;;11.53;;
2912;SDS011;1466;48.778;9.166;2024-01-30T05:37:48;21.40;;;10.30;;
2912;SDS011;1466;48.778;9.166;2024-01-30T05:40:15;23.95;;;11.32;;
2912;SDS011;1466;48.778;9.166;2024-01-30T05:42:41;29.65;;;11.95;;
2912;SDS011;1466;48.778;9.166;2024-01-30T05:45:07;24.17;;;11.10;;
2912;SDS011;1466;48.778;9.166;2024-01-30T05:47:33;21.77;;;11.32;;
2912;SDS011;1466;48.778;9.166;2024-01-30T05:49:59;35.10;;;13.13;;
2912;SDS011;1466;48.778;9.166;2024-01-30T05:52:25;24.70;;;11.07;;
2912;SDS011;1466;48.778;9.166;2024-01-30T05:54:50;26.67;;;11.53;;
2912;SDS011;1466;48.778;9.166;2024-01-30T05:57:16;39.30;;;11.90;;
2912;SDS011;1466;48.778;9.166;2024-01-30T05:59:42;28.50;;;10.40;;
2912;SDS011;1466;48.778;9.166;2024-01-30T06:02:12;30.38;;;11.88;;
2912;SDS011;1466;48.778;9.166;2024-01-30T06:04:38;23.27;;;10.82;;
2912;SDS011;1466;48.778;9.166;2024-01-30T06:07:04;17.50;;;9.30;;
2912;SDS011;1466;48.778;9.166;2024-01-30T06:09:31;36.47;;;12.20;;
2912;SDS011;1466;48.778;9.166;2024-01-30T06:11:57;18.57;;;9.50;;
2912;SDS011;1466;48.778;9.166;2024-01-30T06:14:23;25.43;;;10.63;;
2912;SDS011;1466;48.778;9.166;2024-01-30T06:16:48;21.87;;;11.20;;
2912;SDS011;1466;48.778;9.166;2024-01-30T06:19:14;23.67;;;10.30;;
2912;SDS011;1466;48.778;9.166;2024-01-30T06:21:40;27.93;;;11.07;;
2912;SDS011;1466;48.778;9.166;2024-01-30T06:24:05;23.10;;;10.93;;
2912;SDS011;1466;48.778;9.166;2024-01-30T06:26:31;34.03;;;13.63;;
2912;SDS011;1466;48.778;9.166;2024-01-30T06:28:57;24.33;;;10.40;;
2912;SDS011;1466;48.778;9.166;2024-01-30T06:31:22;27.27;;;10.57;;
2912;SDS011;1466;48.778;9.166;2024-01-30T06:33:48;23.20;;;9.90;;
2912;SDS011;1466;48.778;9.166;2024-01-30T06:36:17;20.88;;;10.00;;
2912;SDS011;1466;48.778;9.166;2024-01-30T06:38:42;34.53;;;12.05;;
2912;SDS011;1466;48.778;9.166;2024-01-30T06:41:08;18.90;;;10.00;;
2912;SDS011;1466;48.778;9.166;2024-01-30T06:43:33;22.67;;;10.10;;
2912;SDS011;1466;48.778;9.166;2024-01-30T06:45:59;21.63;;;10.70;;
2912;SDS011;1466;48.778;9.166;2024-01-30T06:48:25;26.70;;;11.30;;
2912;SDS011;1466;48.778;9.166;2024-01-30T06:50:54;20.73;;;10.90;;
2912;SDS011;1466;48.778;9.166;2024-01-30T06:53:19;26.48;;;11.73;;
2912;SDS011;1466;48.778;9.166;2024-01-30T06:55:45;27.90;;;11.30;;
2912;SDS011;1466;48.778;9.166;2024-01-30T06:58:11;33.47;;;13.03;;
2912;SDS011;1466;48.778;9.166;2024-01-30T07:00:37;16.93;;;9.57;;
2912;SDS011;1466;48.778;9.166;2024-01-30T07:03:02;21.97;;;10.93;;
2912;SDS011;1466;48.778;9.166;2024-01-30T07:05:28;22.27;;;10.87;;
2912;SDS011;1466;48.778;9.166;2024-01-30T07:07:54;31.93;;;11.33;;
2912;SDS011;1466;48.778;9.166;2024-01-30T07:10:19;23.70;;;10.80;;
2912;SDS011;1466;48.778;9.166;2024-01-30T07:12:45;27.40;;;12.10;;
2912;SDS011;1466;48.778;9.166;2024-01-30T07:15:10;20.60;;;10.10;;
2912;SDS011;1466;48.778;9.166;2024-01-30T07:17:37;23.05;;;11.38;;
2912;SDS011;1466;48.778;9.166;2024-01-30T07:20:02;25.03;;;11.83;;
2912;SDS011;1466;48.778;9.166;2024-01-30T07:22:29;29.17;;;11.80;;
2912;SDS011;1466;48.778;9.166;2024-01-30T07:24:55;26.33;;;10.75;;
2912;SDS011;1466;48.778;9.166;2024-01-30T07:27:21;21.60;;;9.77;;
2912;SDS011;1466;48.778;9.166;2024-01-30T07:29:46;25.60;;;11.03;;
2912;SDS011;1466;48.778;9.166;2024-01-30T07:32:12;26.17;;;12.10;;
2912;SDS011;1466;48.778;9.166;2024-01-30T07:34:38;17.00;;;9.37;;
2912;SDS011;1466;48.778;9.166;2024-01-30T07:37:03;22.57;;;9.73;;
2912;SDS011;1466;48.778;9.166;2024-01-30T07:39:29;20.27;;;9.97;;
2912;SDS011;1466;48.778;9.166;2024-01-30T07:41:54;24.50;;;11.13;;
2912;SDS011;1466;48.778;9.166;2024-01-30T07:44:20;18.80;;;10.27;;
2912;SDS011;1466;48.778;9.166;2024-01-30T07:46:46;28.57;;;11.80;;
2912;SDS011;1466;48.778;9.166;2024-01-30T07:49:11;40.93;;;14.13;;
2912;SDS011;1466;48.778;9.166;2024-01-30T07:51:39;25.65;;;11.13;;
2912;SDS011;1466;48.778;9.166;2024-01-30T07:54:04;23.20;;;10.70;;
2912;SDS011;1466;48.778;9.166;2024-01-30T07:56:30;25.57;;;11.10;;
2912;SDS011;1466;48.778;9.166;2024-01-30T07:58:56;29.37;;;12.80;;
2912;SDS011;1466;48.778;9.166;2024-01-30T08:01:21;23.23;;;10.30;;
2912;SDS011;1466;48.778;9.166;2024-01-30T08:03:47;24.07;;;11.17;;
2912;SDS011;1466;48.778;9.166;2024-01-30T08:06:12;26.00;;;11.07;;
2912;SDS011;1466;48.778;9.166;2024-01-30T08:08:38;26.43;;;11.90;;
2912;SDS011;1466;48.778;9.166;2024-01-30T08:11:03;23.13;;;10.47;;
2912;SDS011;1466;48.778;9.166;2024-01-30T08:13:29;22.30;;;11.73;;
2912;SDS011;1466;48.778;9.166;2024-01-30T08:15:55;26.37;;;12.20;;
2912;SDS011;1466;48.778;9.166;2024-01-30T08:18:20;22.67;;;9.43;;
2912;SDS011;1466;48.778;9.166;2024-01-30T08:20:46;23.67;;;11.60;;
2912;SDS011;1466;48.778;9.166;2024-01-30T08:23:11;26.03;;;11.90;;
2912;SDS011;1466;48.778;9.166;2024-01-30T08:25:37;21.40;;;10.60;;
2912;SDS011;1466;48.778;9.166;2024-01-30T08:28:03;25.57;;;11.50;;
2912;SDS011;1466;48.778;9.166;2024-01-30T08:30:29;22.75;;;11.75;;
2912;SDS011;1466;48.778;9.166;2024-01-30T08:32:54;26.03;;;11.40;;
2912;SDS011;1466;48.778;9.166;2024-01-30T08:35:20;27.70;;;12.80;;
2912;SDS011;1466;48.778;9.166;2024-01-30T08:37:45;33.93;;;12.70;;
2912;SDS011;1466;48.778;9.166;2024-01-30T08:40:11;23.73;;;10.93;;
2912;SDS011;1466;48.778;9.166;2024-01-30T08:42:36;21.93;;;11.03;;
2912;SDS011;1466;48.778;9.166;2024-01-30T08:45:02;36.13;;;11.87;;
2912;SDS011;1466;48.778;9.166;2024-01-30T08:47:29;17.80;;;10.50;;
2912;SDS011;1466;48.778;9.166;2024-01-30T08:49:55;24.83;;;12.20;;
2912;SDS011;1466;48.778;9.166;2024-01-30T08:52:21;26.50;;;11.60;;
2912;SDS011;1466;48.778;9.166;2024-01-30T08:54:46;25.20;;;11.87;;
2912;SDS011;1466;48.778;9.166;2024-01-30T08:57:12;22.77;;;11.47;;
2912;SDS011;1466;48.778;9.166;2024-01-30T08:59:38;31.50;;;12.27;;
2912;SDS011;1466;48.778;9.166;2024-01-30T09:02:03;22.80;;;11.50;;
2912;SDS011;1466;48.778;9.166;2024-01-30T09:04:30;24.40;;;13.18;;
2912;SDS011;1466;48.778;9.166;2024-01-30T09:06:55;22.60;;;11.27;;
2912;SDS011;1466;48.778;9.166;2024-01-30T09:09:21;28.30;;;13.23;;
2912;SDS011;1466;48.778;9.166;2024-01-30T09:11:47;25.23;;;11.03;;
2912;SDS011;1466;48.778;9.166;2024-01-30T09:14:12;24.50;;;10.80;;
2912;SDS011;1466;48.778;9.166;2024-01-30T09:16:38;22.43;;;12.43;;
2912;SDS011;1466;48.778;9.166;2024-01-30T09:19:04;28.30;;;11.90;;
2912;SDS011;1466;48.778;9.166;2024-01-30T09:21:29;23.43;;;11.80;;
2912;SDS011;1466;48.778;9.166;2024-01-30T09:24:00;32.33;;;12.87;;
2912;SDS011;1466;48.778;9.166;2024-01-30T09:26:28;21.85;;;10.95;;
2912;SDS011;1466;48.778;9.166;2024-01-30T09:28:53;24.00;;;11.87;;
2912;SDS011;1466;48.778;9.166;2024-01-30T09:31:19;23.17;;;11.77;;
2912;SDS011;1466;48.778;9.166;2024-01-30T09:33:44;26.87;;;12.20;;
2912;SDS011;1466;48.778;9.166;2024-01-30T09:36:12;28.90;;;12.43;;
2912;SDS011;1466;48.778;9.166;2024-01-30T09:38:40;25.67;;;13.10;;
2912;SDS011;1466;48.778;9.166;2024-01-30T09:41:07;37.43;;;13.80;;
2912;SDS011;1466;48.778;9.166;2024-01-30T09:43:35;25.02;;;12.68;;
2912;SDS011;1466;48.778;9.166;2024-01-30T09:46:02;24.60;;;11.70;;
2912;SDS011;1466;48.778;9.166;2024-01-30T09:48:30;16.50;;;11.45;;
2912;SDS011;1466;48.778;9.166;2024-01-30T09:50:56;19.92;;;11.32;;
2912;SDS011;1466;48.778;9.166;2024-01-30T09:53:24;18.92;;;10.90;;
2912;SDS011;1466;48.778;9.166;2024-01-30T09:55:53;19.70;;;11.50;;
2912;SDS011;1466;48.778;9.166;2024-01-30T09:58:19;48.63;;;17.10;;
2912;SDS011;1466;48.778;9.166;2024-01-30T10:00:44;32.33;;;13.37;;
2912;SDS011;1466;48.778;9.166;2024-01-30T10:03:10;24.67;;;11.70;;
2912;SDS011;1466;48.778;9.166;2024-01-30T10:05:36;23.33;;;11.10;;
2912;SDS011;1466;48.778;9.166;2024-01-30T10:08:07;25.23;;;12.15;;
2912;SDS011;1466;48.778;9.166;2024-01-30T10:10:36;32.03;;;13.82;;
2912;SDS011;1466;48.778;9.166;2024-01-30T10:13:02;29.40;;;11.93;;
2912;SDS011;1466;48.778;9.166;2024-01-30T10:15:28;25.30;;;11.75;;
2912;SDS011;1466;48.778;9.166;2024-01-30T10:17:54;22.87;;;11.70;;
2912;SDS011;1466;48.778;9.166;2024-01-30T10:20:20;34.07;;;13.83;;
2912;SDS011;1466;48.778;9.166;2024-01-30T10:22:47;21.35;;;11.55;;
2912;SDS011;1466;48.778;9.166;2024-01-30T10:25:14;30.98;;;12.55;;
2912;SDS011;1466;48.778;9.166;2024-01-30T10:27:40;33.70;;;14.57;;
2912;SDS011;1466;48.778;9.166;2024-01-30T10:30:06;24.53;;;12.80;;
2912;SDS011;1466;48.778;9.166;2024-01-30T10:32:32;23.95;;;11.32;;
2912;SDS011;1466;48.778;9.166;2024-01-30T10:34:58;23.90;;;11.40;;
2912;SDS011;1466;48.778;9.166;2024-01-30T10:37:25;42.13;;;11.57;;
2912;SDS011;1466;48.778;9.166;2024-01-30T10:39:51;27.92;;;13.70;;
2912;SDS011;1466;48.778;9.166;2024-01-30T10:42:20;23.70;;;11.65;;
2912;SDS011;1466;48.778;9.166;2024-01-30T10:45:24;23.40;;;12.27;;
2912;SDS011;1466;48.778;9.166;2024-01-30T10:47:46;27.90;;;13.13;;
2912;SDS011;1466;48.778;9.166;2024-01-30T10:50:14;33.25;;;12.93;;
2912;SDS011;1466;48.778;9.166;2024-01-30T10:52:40;34.03;;;13.20;;
2912;SDS011;1466;48.778;9.166;2024-01-30T10:55:09;26.25;;;12.50;;
2912;SDS011;1466;48.778;9.166;2024-01-30T10:57:35;33.93;;;13.60;;
2912;SDS011;1466;48.778;9.166;2024-01-30T11:00:02;21.67;;;12.27;;
2912;SDS011;1466;48.778;9.166;2024-01-30T11:02:31;27.30;;;12.57;;
2912;SDS011;1466;48.778;9.166;2024-01-30T11:04:58;24.35;;;12.35;;
2912;SDS011;1466;48.778;9.166;2024-01-30T11:07:28;27.13;;;12.52;;
2912;SDS011;1466;48.778;9.166;2024-01-30T11:12:26;28.30;;;12.98;;
2912;SDS011;1466;48.778;9.166;2024-01-30T11:20:22;23.92;;;12.13;;
2912;SDS011;1466;48.778;9.166;2024-01-30T11:22:52;21.98;;;12.15;;
2912;SDS011;1466;48.778;9.166;2024-01-30T11:25:20;27.45;;;12.48;;
2912;SDS011;1466;48.778;9.166;2024-01-30T11:27:46;37.53;;;13.82;;
2912;SDS011;1466;48.778;9.166;2024-01-30T11:30:24;24.02;;;11.95;;
2912;SDS011;1466;48.778;9.166;2024-01-30T11:35:56;28.45;;;13.23;;
2912;SDS011;1466;48.778;9.166;2024-01-30T11:38:24;23.42;;;12.68;;
2912;SDS011;1466;48.778;9.166;2024-01-30T11:40:52;21.27;;;11.65;;
2912;SDS011;1466;48.778;9.166;2024-01-30T11:43:19;33.58;;;13.88;;
2912;SDS011;1466;48.778;9.166;2024-01-30T11:45:45;28.33;;;13.17;;
2912;SDS011;1466;48.778;9.166;2024-01-30T11:48:11;25.85;;;12.80;;
2912;SDS011;1466;48.778;9.166;2024-01-30T11:50:38;27.13;;;12.95;;
2912;SDS011;1466;48.778;9.166;2024-01-30T11:53:04;39.30;;;13.55;;
2912;SDS011;1466;48.778;9.166;2024-01-30T11:55:30;39.17;;;13.20;;
2912;SDS011;1466;48.778;9.166;2024-01-30T11:57:56;45.13;;;14.90;;
2912;SDS011;1466;48.778;9.166;2024-01-30T12:00:25;27.63;;;13.77;;
2912;SDS011;1466;48.778;9.166;2024-01-30T12:02:54;36.90;;;13.73;;
2912;SDS011;1466;48.778;9.166;2024-01-30T12:05:24;28.52;;;12.95;;
2912;SDS011;1466;48.778;9.166;2024-01-30T12:07:50;36.00;;;12.32;;
2912;SDS011;1466;48.778;9.166;2024-01-30T12:10:16;27.97;;;13.63;;
2912;SDS011;1466;48.778;9.166;2024-01-30T12:12:43;28.52;;;12.90;;
2912;SDS011;1466;48.778;9.166;2024-01-30T12:15:13;30.50;;;12.13;;
2912;SDS011;1466;48.778;9.166;2024-01-30T12:17:39;29.20;;;13.00;;
2912;SDS011;1466;48.778;9.166;2024-01-30T12:20:06;22.73;;;12.10;;
2912;SDS011;1466;48.778;9.166;2024-01-30T12:22:40;27.17;;;12.55;;
2912;SDS011;1466;48.778;9.166;2024-01-30T12:27:36;30.65;;;13.52;;
2912;SDS011;1466;48.778;9.166;2024-01-30T12:30:06;29.58;;;13.98;;
2912;SDS011;1466;48.778;9.166;2024-01-30T12:32:37;27.40;;;12.85;;
2912;SDS011;1466;48.778;9.166;2024-01-30T12:35:07;27.95;;;13.00;;
2912;SDS011;1466;48.778;9.166;2024-01-30T12:37:33;26.60;;;12.13;;
2912;SDS011;1466;48.778;9.166;2024-01-30T12:39:59;31.10;;;14.43;;
2912;SDS011;1466;48.778;9.166;2024-01-30T12:42:26;26.83;;;12.47;;
2912;SDS011;1466;48.778;9.166;2024-01-30T12:44:52;37.22;;;12.55;;
2912;SDS011;1466;48.778;9.166;2024-01-30T12:47:18;61.33;;;15.70;;
2912;SDS011;1466;48.778;9.166;2024-01-30T12:49:46;31.77;;;13.15;;
2912;SDS011;1466;48.778;9.166;2024-01-30T12:52:12;37.53;;;14.43;;
2912;SDS011;1466;48.778;9.166;2024-01-30T12:54:39;39.90;;;15.27;;
2912;SDS011;1466;48.778;9.166;2024-01-30T12:57:05;30.73;;;14.03;;
2912;SDS011;1466;48.778;9.166;2024-01-30T12:59:31;34.97;;;13.30;;
2912;SDS011;1466;48.778;9.166;2024-01-30T13:01:56;45.50;;;12.77;;
2912;SDS011;1466;48.778;9.166;2024-01-30T13:04:23;24.70;;;11.68;;
2912;SDS011;1466;48.778;9.166;2024-01-30T13:06:49;27.50;;;11.73;;
2912;SDS011;1466;48.778;9.166;2024-01-30T13:09:15;34.13;;;12.67;;
2912;SDS011;1466;48.778;9.166;2024-01-30T13:11:40;22.70;;;11.67;;
2912;SDS011;1466;48.778;9.166;2024-01-30T13:14:06;31.83;;;13.57;;
2912;SDS011;1466;48.778;9.166;2024-01-30T13:16:32;44.67;;;16.23;;
2912;SDS011;1466;48.778;9.166;2024-01-30T13:18:58;28.87;;;12.70;;
2912;SDS011;1466;48.778;9.166;2024-01-30T13:21:23;31.87;;;12.97;;
2912;SDS011;1466;48.778;9.166;2024-01-30T13:23:49;24.47;;;12.27;;
2912;SDS011;1466;48.778;9.166;2024-01-30T13:26:18;32.53;;;13.18;;
2912;SDS011;1466;48.778;9.166;2024-01-30T13:28:44;30.97;;;12.23;;
2912;SDS011;1466;48.778;9.166;2024-01-30T13:31:09;22.37;;;11.80;;
2912;SDS011;1466;48.778;9.166;2024-01-30T13:33:35;26.70;;;11.70;;
2912;SDS011;1466;48.778;9.166;2024-01-30T13:36:01;26.13;;;12.20;;
2912;SDS011;1466;48.778;9.166;2024-01-30T13:38:26;26.13;;;12.30;;
2912;SDS011;1466;48.778;9.166;2024-01-30T13:40:52;24.03;;;12.13;;
2912;SDS011;1466;48.778;9.166;2024-01-30T13:43:18;18.57;;;11.73;;
2912;SDS011;1466;48.778;9.166;2024-01-30T13:45:43;34.87;;;13.77;;
2912;SDS011;1466;48.778;9.166;2024-01-30T13:48:09;35.03;;;12.80;;
2912;SDS011;1466;48.778;9.166;2024-01-30T13:50:34;28.33;;;12.93;;
2912;SDS011;1466;48.778;9.166;2024-01-30T13:53:02;28.63;;;11.77;;
2912;SDS011;1466;48.778;9.166;2024-01-30T13:55:28;35.20;;;12.93;;
2912;SDS011;1466;48.778;9.166;2024-01-30T13:57:54;28.87;;;13.27;;
2912;SDS011;1466;48.778;9.166;2024-01-30T14:00:20;24.75;;;11.95;;
2912;SDS011;1466;48.778;9.166;2024-01-30T14:02:47;35.75;;;13.23;;
2912;SDS011;1466;48.778;9.166;2024-01-30T14:05:13;23.03;;;11.97;;
2912;SDS011;1466;48.778;9.166;2024-01-30T14:07:39;24.17;;;12.77;;
2912;SDS011;1466;48.778;9.166;2024-01-30T14:10:07;28.70;;;12.10;;
2912;SDS011;1466;48.778;9.166;2024-01-30T14:12:35;28.27;;;12.02;;
2912;SDS011;1466;48.778;9.166;2024-01-30T14:15:01;28.57;;;12.17;;
2912;SDS011;1466;48.778;9.166;2024-01-30T14:17:27;26.97;;;11.53;;
2912;SDS011;1466;48.778;9.166;2024-01-30T14:19:52;26.17;;;11.30;;
2912;SDS011;1466;48.778;9.166;2024-01-30T14:22:18;33.67;;;13.43;;
2912;SDS011;1466;48.778;9.166;2024-01-30T14:24:44;26.87;;;12.47;;
2912;SDS011;1466;48.778;9.166;2024-01-30T14:27:09;33.30;;;13.43;;
2912;SDS011;1466;48.778;9.166;2024-01-30T14:29:35;22.20;;;11.90;;
2912;SDS011;1466;48.778;9.166;2024-01-30T14:32:01;21.80;;;12.97;;
2912;SDS011;1466;48.778;9.166;2024-01-30T14:34:27;41.03;;;14.20;;
2912;SDS011;1466;48.778;9.166;2024-01-30T14:36:52;41.47;;;15.27;;
2912;SDS011;1466;48.778;9.166;2024-01-30T14:39:18;37.93;;;15.67;;
2912;SDS011;1466;48.778;9.166;2024-01-30T14:41:44;32.33;;;14.67;;
2912;SDS011;1466;48.778;9.166;2024-01-30T14:44:09;35.93;;;14.43;;
2912;SDS011;1466;48.778;9.166;2024-01-30T14:46:36;33.70;;;14.63;;
2912;SDS011;1466;48.778;9.166;2024-01-30T14:49:02;35.20;;;15.18;;
2912;SDS011;1466;48.778;9.166;2024-01-30T14:51:30;46.55;;;16.83;;
2912;SDS011;1466;48.778;9.166;2024-01-30T14:53:56;43.67;;;16.90;;
2912;SDS011;1466;48.778;9.166;2024-01-30T14:56:22;33.70;;;14.33;;
2912;SDS011;1466;48.778;9.166;2024-01-30T14:58:48;33.03;;;14.63;;